Terminal Aerodrome Forecast
Issued by NWS

Home | Current Version | Previous Version | Text Only | Print | Product List | Glossary On
Versions: 1 2 3 4 5 6 7 8 9 10 11 12 13 14 15 16 17 18 19 20 21 22 23 24 25 26 27 28 29 30 31 32 33 34
000
FTUS45 KGJT 120620 AAA
TAFDRO
TAF AMD
KDRO 120620Z 1206/1306 03008KT P6SM -RA SCT070 OVC100
      TEMPO 1206/1208 6SM -RA BR BKN060 OVC090
     FM120800 03007KT P6SM VCSH SCT080 BKN110
     FM121000 VRB05KT P6SM SCT200
     FM121900 33010KT P6SM SCT090 SCT150
     FM130200 01005KT P6SM VCTS SCT090CB BKN150=

USA.gov is the U.S. government's official web portal to all federal, state and local government web resources and services.